sensor_id;sensor_type;location;lat;lon;timestamp;P1;durP1;ratioP1;P2;durP2;ratioP2
78589;SDS011;67888;50.228;7.828;2023-03-22T00:01:25;10.68;;;4.55;;
78589;SDS011;67888;50.228;7.828;2023-03-22T00:06:30;14.77;;;6.87;;
78589;SDS011;67888;50.228;7.828;2023-03-22T00:11:30;20.17;;;9.97;;
78589;SDS011;67888;50.228;7.828;2023-03-22T00:16:30;11.27;;;4.93;;
78589;SDS011;67888;50.228;7.828;2023-03-22T00:21:31;8.63;;;4.38;;
78589;SDS011;67888;50.228;7.828;2023-03-22T00:26:31;10.33;;;5.13;;
78589;SDS011;67888;50.228;7.828;2023-03-22T00:31:32;11.60;;;5.57;;
78589;SDS011;67888;50.228;7.828;2023-03-22T00:36:32;9.73;;;4.83;;
78589;SDS011;67888;50.228;7.828;2023-03-22T00:41:32;9.70;;;4.63;;
78589;SDS011;67888;50.228;7.828;2023-03-22T00:46:33;10.47;;;4.87;;
78589;SDS011;67888;50.228;7.828;2023-03-22T00:51:33;9.37;;;4.50;;
78589;SDS011;67888;50.228;7.828;2023-03-22T00:56:34;9.32;;;4.38;;
78589;SDS011;67888;50.228;7.828;2023-03-22T01:01:36;10.80;;;4.30;;
78589;SDS011;67888;50.228;7.828;2023-03-22T01:06:37;10.33;;;3.40;;
78589;SDS011;67888;50.228;7.828;2023-03-22T01:11:37;9.10;;;4.03;;
78589;SDS011;67888;50.228;7.828;2023-03-22T01:16:37;10.87;;;3.77;;
78589;SDS011;67888;50.228;7.828;2023-03-22T01:21:38;8.80;;;3.40;;
78589;SDS011;67888;50.228;7.828;2023-03-22T01:26:38;12.03;;;3.60;;
78589;SDS011;67888;50.228;7.828;2023-03-22T01:31:39;10.13;;;3.60;;
78589;SDS011;67888;50.228;7.828;2023-03-22T01:36:39;8.13;;;3.33;;
78589;SDS011;67888;50.228;7.828;2023-03-22T01:41:40;14.60;;;5.33;;
78589;SDS011;67888;50.228;7.828;2023-03-22T01:46:40;9.57;;;4.17;;
78589;SDS011;67888;50.228;7.828;2023-03-22T01:51:43;10.68;;;4.93;;
78589;SDS011;67888;50.228;7.828;2023-03-22T01:56:47;9.43;;;3.97;;
78589;SDS011;67888;50.228;7.828;2023-03-22T02:01:49;8.30;;;3.38;;
78589;SDS011;67888;50.228;7.828;2023-03-22T02:06:52;10.00;;;3.70;;
78589;SDS011;67888;50.228;7.828;2023-03-22T02:11:58;10.05;;;4.40;;
78589;SDS011;67888;50.228;7.828;2023-03-22T02:33:33;8.93;;;3.75;;
78589;SDS011;67888;50.228;7.828;2023-03-22T02:49:29;9.48;;;4.10;;
78589;SDS011;67888;50.228;7.828;2023-03-22T02:54:41;49.72;;;16.30;;
78589;SDS011;67888;50.228;7.828;2023-03-22T02:59:48;19.20;;;6.53;;
78589;SDS011;67888;50.228;7.828;2023-03-22T03:04:51;17.25;;;6.55;;
78589;SDS011;67888;50.228;7.828;2023-03-22T03:09:53;12.50;;;5.40;;
78589;SDS011;67888;50.228;7.828;2023-03-22T03:14:53;12.83;;;4.93;;
78589;SDS011;67888;50.228;7.828;2023-03-22T03:30:10;49.80;;;21.83;;
78589;SDS011;67888;50.228;7.828;2023-03-22T03:35:21;16.23;;;7.73;;
78589;SDS011;67888;50.228;7.828;2023-03-22T03:45:30;14.25;;;6.13;;
78589;SDS011;67888;50.228;7.828;2023-03-22T03:50:32;10.67;;;5.30;;
78589;SDS011;67888;50.228;7.828;2023-03-22T03:55:33;11.07;;;4.50;;
78589;SDS011;67888;50.228;7.828;2023-03-22T04:00:33;11.57;;;4.50;;
78589;SDS011;67888;50.228;7.828;2023-03-22T04:05:35;10.65;;;4.40;;
78589;SDS011;67888;50.228;7.828;2023-03-22T04:10:35;8.87;;;4.30;;
78589;SDS011;67888;50.228;7.828;2023-03-22T04:15:36;9.20;;;4.03;;
78589;SDS011;67888;50.228;7.828;2023-03-22T04:20:36;11.07;;;4.27;;
78589;SDS011;67888;50.228;7.828;2023-03-22T04:25:40;11.45;;;4.93;;
78589;SDS011;67888;50.228;7.828;2023-03-22T04:30:42;10.10;;;4.73;;
78589;SDS011;67888;50.228;7.828;2023-03-22T04:35:44;10.02;;;4.18;;
78589;SDS011;67888;50.228;7.828;2023-03-22T04:40:49;10.88;;;4.93;;
78589;SDS011;67888;50.228;7.828;2023-03-22T04:45:50;13.43;;;4.97;;
78589;SDS011;67888;50.228;7.828;2023-03-22T04:50:53;9.73;;;4.80;;
78589;SDS011;67888;50.228;7.828;2023-03-22T04:55:54;10.05;;;4.78;;
78589;SDS011;67888;50.228;7.828;2023-03-22T05:00:58;9.30;;;3.53;;
78589;SDS011;67888;50.228;7.828;2023-03-22T05:05:59;9.07;;;4.00;;
78589;SDS011;67888;50.228;7.828;2023-03-22T05:11:05;11.05;;;3.80;;
78589;SDS011;67888;50.228;7.828;2023-03-22T05:16:08;11.00;;;4.55;;
78589;SDS011;67888;50.228;7.828;2023-03-22T05:21:12;11.50;;;4.37;;
78589;SDS011;67888;50.228;7.828;2023-03-22T05:26:14;9.20;;;4.60;;
78589;SDS011;67888;50.228;7.828;2023-03-22T05:31:16;11.45;;;4.78;;
78589;SDS011;67888;50.228;7.828;2023-03-22T05:36:18;11.10;;;5.18;;
78589;SDS011;67888;50.228;7.828;2023-03-22T05:41:19;8.90;;;4.20;;
78589;SDS011;67888;50.228;7.828;2023-03-22T05:46:19;12.73;;;5.00;;
78589;SDS011;67888;50.228;7.828;2023-03-22T05:51:20;11.05;;;4.70;;
78589;SDS011;67888;50.228;7.828;2023-03-22T05:56:24;11.23;;;5.33;;
78589;SDS011;67888;50.228;7.828;2023-03-22T06:01:25;11.95;;;5.75;;
78589;SDS011;67888;50.228;7.828;2023-03-22T06:06:26;11.33;;;5.53;;
78589;SDS011;67888;50.228;7.828;2023-03-22T06:11:27;13.20;;;5.67;;
78589;SDS011;67888;50.228;7.828;2023-03-22T06:16:27;12.27;;;5.93;;
78589;SDS011;67888;50.228;7.828;2023-03-22T06:21:29;13.05;;;5.82;;
78589;SDS011;67888;50.228;7.828;2023-03-22T06:26:29;13.90;;;6.07;;
78589;SDS011;67888;50.228;7.828;2023-03-22T06:31:30;13.07;;;6.57;;
78589;SDS011;67888;50.228;7.828;2023-03-22T06:36:30;14.40;;;6.63;;
78589;SDS011;67888;50.228;7.828;2023-03-22T06:41:31;14.17;;;6.10;;
78589;SDS011;67888;50.228;7.828;2023-03-22T06:46:31;13.57;;;6.10;;
78589;SDS011;67888;50.228;7.828;2023-03-22T06:51:32;14.37;;;6.53;;
78589;SDS011;67888;50.228;7.828;2023-03-22T06:56:33;15.88;;;6.95;;
78589;SDS011;67888;50.228;7.828;2023-03-22T07:01:33;17.13;;;7.37;;
78589;SDS011;67888;50.228;7.828;2023-03-22T07:06:33;16.20;;;7.40;;
78589;SDS011;67888;50.228;7.828;2023-03-22T07:11:34;18.70;;;8.70;;
78589;SDS011;67888;50.228;7.828;2023-03-22T07:16:34;15.63;;;8.40;;
78589;SDS011;67888;50.228;7.828;2023-03-22T07:21:35;15.33;;;7.33;;
78589;SDS011;67888;50.228;7.828;2023-03-22T07:26:36;18.07;;;8.43;;
78589;SDS011;67888;50.228;7.828;2023-03-22T07:31:37;14.98;;;7.65;;
78589;SDS011;67888;50.228;7.828;2023-03-22T07:36:38;24.60;;;7.95;;
78589;SDS011;67888;50.228;7.828;2023-03-22T07:41:38;13.40;;;5.90;;
78589;SDS011;67888;50.228;7.828;2023-03-22T07:46:39;13.83;;;5.70;;
78589;SDS011;67888;50.228;7.828;2023-03-22T07:51:40;12.40;;;5.33;;
78589;SDS011;67888;50.228;7.828;2023-03-22T07:56:40;11.70;;;5.13;;
78589;SDS011;67888;50.228;7.828;2023-03-22T08:01:42;9.45;;;4.50;;
78589;SDS011;67888;50.228;7.828;2023-03-22T08:06:43;10.23;;;4.20;;
78589;SDS011;67888;50.228;7.828;2023-03-22T08:11:45;8.70;;;3.37;;
78589;SDS011;67888;50.228;7.828;2023-03-22T08:16:45;10.37;;;3.63;;
78589;SDS011;67888;50.228;7.828;2023-03-22T08:21:46;9.32;;;3.63;;
78589;SDS011;67888;50.228;7.828;2023-03-22T08:26:46;7.90;;;3.30;;
78589;SDS011;67888;50.228;7.828;2023-03-22T08:31:49;8.10;;;2.80;;
78589;SDS011;67888;50.228;7.828;2023-03-22T08:36:49;9.02;;;2.80;;
78589;SDS011;67888;50.228;7.828;2023-03-22T08:41:50;6.60;;;2.17;;
78589;SDS011;67888;50.228;7.828;2023-03-22T08:46:50;4.93;;;1.50;;
78589;SDS011;67888;50.228;7.828;2023-03-22T08:51:51;5.40;;;1.73;;
78589;SDS011;67888;50.228;7.828;2023-03-22T08:56:51;4.75;;;1.30;;
78589;SDS011;67888;50.228;7.828;2023-03-22T09:01:52;4.73;;;1.37;;
78589;SDS011;67888;50.228;7.828;2023-03-22T09:06:52;6.00;;;1.50;;
78589;SDS011;67888;50.228;7.828;2023-03-22T09:11:52;3.90;;;1.33;;
78589;SDS011;67888;50.228;7.828;2023-03-22T09:16:53;5.87;;;1.27;;
78589;SDS011;67888;50.228;7.828;2023-03-22T09:21:53;3.70;;;1.30;;
78589;SDS011;67888;50.228;7.828;2023-03-22T09:26:54;5.53;;;1.45;;
78589;SDS011;67888;50.228;7.828;2023-03-22T09:31:57;7.77;;;1.73;;
78589;SDS011;67888;50.228;7.828;2023-03-22T09:36:57;6.63;;;1.30;;
78589;SDS011;67888;50.228;7.828;2023-03-22T09:42:01;3.97;;;1.20;;
78589;SDS011;67888;50.228;7.828;2023-03-22T09:47:14;2.97;;;1.00;;
78589;SDS011;67888;50.228;7.828;2023-03-22T09:52:18;4.57;;;1.00;;
78589;SDS011;67888;50.228;7.828;2023-03-22T10:02:29;4.50;;;1.63;;
78589;SDS011;67888;50.228;7.828;2023-03-22T10:18:37;5.03;;;1.20;;
78589;SDS011;67888;50.228;7.828;2023-03-22T10:34:05;4.20;;;1.27;;
78589;SDS011;67888;50.228;7.828;2023-03-22T10:39:25;3.70;;;1.50;;
78589;SDS011;67888;50.228;7.828;2023-03-22T10:44:32;4.28;;;1.30;;
78589;SDS011;67888;50.228;7.828;2023-03-22T10:49:44;5.70;;;1.50;;
78589;SDS011;67888;50.228;7.828;2023-03-22T10:54:54;4.57;;;1.20;;
78589;SDS011;67888;50.228;7.828;2023-03-22T10:59:56;7.82;;;1.80;;
78589;SDS011;67888;50.228;7.828;2023-03-22T11:04:58;9.52;;;1.45;;
78589;SDS011;67888;50.228;7.828;2023-03-22T11:15:29;5.13;;;1.40;;
78589;SDS011;67888;50.228;7.828;2023-03-22T11:20:30;4.18;;;1.45;;
78589;SDS011;67888;50.228;7.828;2023-03-22T11:25:35;3.53;;;1.27;;
78589;SDS011;67888;50.228;7.828;2023-03-22T11:30:57;3.40;;;1.17;;
78589;SDS011;67888;50.228;7.828;2023-03-22T11:35:59;4.25;;;1.50;;
78589;SDS011;67888;50.228;7.828;2023-03-22T11:46:23;3.80;;;1.53;;
78589;SDS011;67888;50.228;7.828;2023-03-22T11:51:28;4.28;;;1.48;;
78589;SDS011;67888;50.228;7.828;2023-03-22T11:56:32;4.10;;;1.50;;
78589;SDS011;67888;50.228;7.828;2023-03-22T12:01:41;3.07;;;1.53;;
78589;SDS011;67888;50.228;7.828;2023-03-22T12:06:48;4.80;;;1.38;;
78589;SDS011;67888;50.228;7.828;2023-03-22T12:11:55;6.63;;;1.40;;
78589;SDS011;67888;50.228;7.828;2023-03-22T12:17:10;4.97;;;1.37;;
78589;SDS011;67888;50.228;7.828;2023-03-22T12:22:28;4.27;;;1.50;;
78589;SDS011;67888;50.228;7.828;2023-03-22T12:27:32;4.20;;;1.20;;
78589;SDS011;67888;50.228;7.828;2023-03-22T12:32:48;4.18;;;1.50;;
78589;SDS011;67888;50.228;7.828;2023-03-22T12:37:54;3.00;;;1.00;;
78589;SDS011;67888;50.228;7.828;2023-03-22T12:42:59;3.67;;;1.08;;
78589;SDS011;67888;50.228;7.828;2023-03-22T12:48:38;4.25;;;1.10;;
78589;SDS011;67888;50.228;7.828;2023-03-22T12:53:52;5.83;;;1.10;;
78589;SDS011;67888;50.228;7.828;2023-03-22T12:58:56;5.18;;;1.13;;
78589;SDS011;67888;50.228;7.828;2023-03-22T13:04:24;3.97;;;1.30;;
78589;SDS011;67888;50.228;7.828;2023-03-22T13:19:52;5.93;;;1.37;;
78589;SDS011;67888;50.228;7.828;2023-03-22T13:24:57;4.03;;;1.20;;
78589;SDS011;67888;50.228;7.828;2023-03-22T13:30:05;3.22;;;1.15;;
78589;SDS011;67888;50.228;7.828;2023-03-22T13:35:20;3.73;;;1.30;;
78589;SDS011;67888;50.228;7.828;2023-03-22T13:46:46;3.72;;;1.13;;
78589;SDS011;67888;50.228;7.828;2023-03-22T13:56:27;4.93;;;1.15;;
78589;SDS011;67888;50.228;7.828;2023-03-22T14:01:33;3.75;;;1.10;;
78589;SDS011;67888;50.228;7.828;2023-03-22T14:06:58;4.07;;;1.17;;
78589;SDS011;67888;50.228;7.828;2023-03-22T14:12:02;4.53;;;1.20;;
78589;SDS011;67888;50.228;7.828;2023-03-22T14:17:17;3.65;;;1.20;;
78589;SDS011;67888;50.228;7.828;2023-03-22T14:22:30;4.22;;;1.40;;
78589;SDS011;67888;50.228;7.828;2023-03-22T14:27:36;3.70;;;1.03;;
78589;SDS011;67888;50.228;7.828;2023-03-22T14:32:41;4.60;;;1.35;;
78589;SDS011;67888;50.228;7.828;2023-03-22T14:37:44;8.27;;;1.40;;
78589;SDS011;67888;50.228;7.828;2023-03-22T14:42:46;4.00;;;1.40;;
78589;SDS011;67888;50.228;7.828;2023-03-22T14:47:46;3.93;;;1.20;;
78589;SDS011;67888;50.228;7.828;2023-03-22T14:52:48;3.87;;;1.30;;
78589;SDS011;67888;50.228;7.828;2023-03-22T14:57:54;3.75;;;1.48;;
78589;SDS011;67888;50.228;7.828;2023-03-22T15:02:59;4.57;;;1.30;;
78589;SDS011;67888;50.228;7.828;2023-03-22T15:08:07;3.27;;;1.20;;
78589;SDS011;67888;50.228;7.828;2023-03-22T15:13:09;4.07;;;1.30;;
78589;SDS011;67888;50.228;7.828;2023-03-22T15:18:12;3.70;;;1.20;;
78589;SDS011;67888;50.228;7.828;2023-03-22T15:23:16;3.73;;;1.10;;
78589;SDS011;67888;50.228;7.828;2023-03-22T15:28:19;4.90;;;1.30;;
78589;SDS011;67888;50.228;7.828;2023-03-22T15:33:23;7.03;;;1.80;;
78589;SDS011;67888;50.228;7.828;2023-03-22T15:38:29;3.30;;;1.20;;
78589;SDS011;67888;50.228;7.828;2023-03-22T15:43:38;2.88;;;1.00;;
78589;SDS011;67888;50.228;7.828;2023-03-22T15:48:49;3.75;;;1.23;;
78589;SDS011;67888;50.228;7.828;2023-03-22T15:54:01;5.73;;;1.37;;
78589;SDS011;67888;50.228;7.828;2023-03-22T15:59:20;5.40;;;1.03;;
78589;SDS011;67888;50.228;7.828;2023-03-22T16:04:31;3.70;;;1.30;;
78589;SDS011;67888;50.228;7.828;2023-03-22T16:09:33;5.40;;;1.40;;
78589;SDS011;67888;50.228;7.828;2023-03-22T16:14:34;6.07;;;1.43;;
78589;SDS011;67888;50.228;7.828;2023-03-22T16:19:34;7.53;;;1.70;;
78589;SDS011;67888;50.228;7.828;2023-03-22T16:24:35;3.83;;;1.38;;
78589;SDS011;67888;50.228;7.828;2023-03-22T16:29:36;5.80;;;1.60;;
78589;SDS011;67888;50.228;7.828;2023-03-22T16:34:36;3.43;;;1.30;;
78589;SDS011;67888;50.228;7.828;2023-03-22T16:39:37;4.67;;;1.30;;
78589;SDS011;67888;50.228;7.828;2023-03-22T16:44:41;3.88;;;1.23;;
78589;SDS011;67888;50.228;7.828;2023-03-22T16:49:46;4.50;;;1.50;;
78589;SDS011;67888;50.228;7.828;2023-03-22T16:54:47;5.43;;;1.70;;
78589;SDS011;67888;50.228;7.828;2023-03-22T16:59:49;4.45;;;1.60;;
78589;SDS011;67888;50.228;7.828;2023-03-22T17:04:51;8.75;;;3.15;;
78589;SDS011;67888;50.228;7.828;2023-03-22T17:09:51;34.30;;;13.10;;
78589;SDS011;67888;50.228;7.828;2023-03-22T17:14:52;26.93;;;13.00;;
78589;SDS011;67888;50.228;7.828;2023-03-22T17:19:53;5.77;;;2.00;;
78589;SDS011;67888;50.228;7.828;2023-03-22T17:24:54;7.37;;;1.70;;
78589;SDS011;67888;50.228;7.828;2023-03-22T17:29:57;6.10;;;1.30;;
78589;SDS011;67888;50.228;7.828;2023-03-22T17:34:57;4.40;;;1.37;;
78589;SDS011;67888;50.228;7.828;2023-03-22T17:39:58;5.43;;;1.07;;
78589;SDS011;67888;50.228;7.828;2023-03-22T17:44:58;2.43;;;1.10;;
78589;SDS011;67888;50.228;7.828;2023-03-22T17:49:59;3.55;;;1.30;;
78589;SDS011;67888;50.228;7.828;2023-03-22T17:54:59;5.67;;;1.60;;
78589;SDS011;67888;50.228;7.828;2023-03-22T18:00:00;4.07;;;1.30;;
78589;SDS011;67888;50.228;7.828;2023-03-22T18:05:01;3.75;;;1.27;;
78589;SDS011;67888;50.228;7.828;2023-03-22T18:10:02;4.07;;;1.10;;
78589;SDS011;67888;50.228;7.828;2023-03-22T18:15:07;2.58;;;1.00;;
78589;SDS011;67888;50.228;7.828;2023-03-22T18:20:12;4.60;;;1.45;;
78589;SDS011;67888;50.228;7.828;2023-03-22T18:25:15;3.87;;;1.40;;
78589;SDS011;67888;50.228;7.828;2023-03-22T18:30:18;5.10;;;1.40;;
78589;SDS011;67888;50.228;7.828;2023-03-22T18:35:21;4.05;;;1.40;;
78589;SDS011;67888;50.228;7.828;2023-03-22T18:40:22;6.38;;;1.30;;
78589;SDS011;67888;50.228;7.828;2023-03-22T18:45:22;5.47;;;1.93;;
78589;SDS011;67888;50.228;7.828;2023-03-22T18:50:23;3.77;;;1.30;;
78589;SDS011;67888;50.228;7.828;2023-03-22T18:55:27;4.43;;;1.50;;
78589;SDS011;67888;50.228;7.828;2023-03-22T19:00:27;5.97;;;1.23;;
78589;SDS011;67888;50.228;7.828;2023-03-22T19:05:28;2.67;;;1.10;;
78589;SDS011;67888;50.228;7.828;2023-03-22T19:10:28;3.47;;;1.40;;
78589;SDS011;67888;50.228;7.828;2023-03-22T19:15:29;4.30;;;1.57;;
78589;SDS011;67888;50.228;7.828;2023-03-22T19:20:29;3.33;;;1.48;;
78589;SDS011;67888;50.228;7.828;2023-03-22T19:25:30;4.13;;;1.50;;
78589;SDS011;67888;50.228;7.828;2023-03-22T19:30:31;4.60;;;1.50;;
78589;SDS011;67888;50.228;7.828;2023-03-22T19:35:31;5.10;;;2.27;;
78589;SDS011;67888;50.228;7.828;2023-03-22T19:40:32;4.80;;;2.28;;
78589;SDS011;67888;50.228;7.828;2023-03-22T19:45:32;4.10;;;1.80;;
78589;SDS011;67888;50.228;7.828;2023-03-22T19:50:33;9.00;;;3.47;;
78589;SDS011;67888;50.228;7.828;2023-03-22T19:55:35;10.20;;;4.90;;
78589;SDS011;67888;50.228;7.828;2023-03-22T20:00:36;4.57;;;1.90;;
78589;SDS011;67888;50.228;7.828;2023-03-22T20:05:36;6.13;;;2.00;;
78589;SDS011;67888;50.228;7.828;2023-03-22T20:10:37;7.00;;;2.20;;
78589;SDS011;67888;50.228;7.828;2023-03-22T20:15:38;12.65;;;6.20;;
78589;SDS011;67888;50.228;7.828;2023-03-22T20:20:38;10.07;;;5.80;;
78589;SDS011;67888;50.228;7.828;2023-03-22T20:25:39;5.17;;;2.30;;
78589;SDS011;67888;50.228;7.828;2023-03-22T20:30:40;5.10;;;2.27;;
78589;SDS011;67888;50.228;7.828;2023-03-22T20:35:40;4.75;;;1.98;;
78589;SDS011;67888;50.228;7.828;2023-03-22T20:40:43;5.63;;;1.83;;
78589;SDS011;67888;50.228;7.828;2023-03-22T20:45:44;5.68;;;1.67;;
78589;SDS011;67888;50.228;7.828;2023-03-22T20:50:49;4.28;;;1.58;;
78589;SDS011;67888;50.228;7.828;2023-03-22T20:55:51;5.20;;;1.87;;
78589;SDS011;67888;50.228;7.828;2023-03-22T21:00:53;3.50;;;1.40;;
78589;SDS011;67888;50.228;7.828;2023-03-22T21:05:54;6.23;;;1.80;;
78589;SDS011;67888;50.228;7.828;2023-03-22T21:10:57;5.83;;;1.60;;
78589;SDS011;67888;50.228;7.828;2023-03-22T21:16:00;4.55;;;1.77;;
78589;SDS011;67888;50.228;7.828;2023-03-22T21:21:01;4.75;;;1.52;;
78589;SDS011;67888;50.228;7.828;2023-03-22T21:26:02;5.10;;;1.50;;
78589;SDS011;67888;50.228;7.828;2023-03-22T21:31:07;3.42;;;1.30;;
78589;SDS011;67888;50.228;7.828;2023-03-22T21:36:10;4.10;;;1.40;;
78589;SDS011;67888;50.228;7.828;2023-03-22T21:41:12;4.57;;;1.40;;
78589;SDS011;67888;50.228;7.828;2023-03-22T21:46:13;4.47;;;1.40;;
78589;SDS011;67888;50.228;7.828;2023-03-22T21:51:14;3.83;;;1.27;;
78589;SDS011;67888;50.228;7.828;2023-03-22T21:56:16;5.22;;;1.80;;
78589;SDS011;67888;50.228;7.828;2023-03-22T22:01:17;5.60;;;1.57;;
78589;SDS011;67888;50.228;7.828;2023-03-22T22:06:18;4.88;;;1.60;;
78589;SDS011;67888;50.228;7.828;2023-03-22T22:11:18;6.63;;;1.50;;
78589;SDS011;67888;50.228;7.828;2023-03-22T22:16:19;4.47;;;1.30;;
78589;SDS011;67888;50.228;7.828;2023-03-22T22:21:20;6.00;;;1.23;;
78589;SDS011;67888;50.228;7.828;2023-03-22T22:26:22;4.05;;;1.45;;
78589;SDS011;67888;50.228;7.828;2023-03-22T22:31:26;4.10;;;1.23;;
78589;SDS011;67888;50.228;7.828;2023-03-22T22:36:30;3.05;;;1.30;;
78589;SDS011;67888;50.228;7.828;2023-03-22T22:41:31;5.13;;;1.50;;
78589;SDS011;67888;50.228;7.828;2023-03-22T22:46:31;7.27;;;1.60;;
78589;SDS011;67888;50.228;7.828;2023-03-22T22:51:32;3.00;;;1.10;;
78589;SDS011;67888;50.228;7.828;2023-03-22T22:56:32;4.23;;;1.23;;
78589;SDS011;67888;50.228;7.828;2023-03-22T23:01:35;5.10;;;1.30;;
78589;SDS011;67888;50.228;7.828;2023-03-22T23:06:36;4.03;;;1.40;;
78589;SDS011;67888;50.228;7.828;2023-03-22T23:11:37;4.43;;;1.20;;
78589;SDS011;67888;50.228;7.828;2023-03-22T23:16:37;3.90;;;1.20;;
78589;SDS011;67888;50.228;7.828;2023-03-22T23:21:38;4.23;;;1.03;;
78589;SDS011;67888;50.228;7.828;2023-03-22T23:26:46;3.30;;;1.10;;
78589;SDS011;67888;50.228;7.828;2023-03-22T23:31:46;6.60;;;1.43;;
78589;SDS011;67888;50.228;7.828;2023-03-22T23:36:47;3.08;;;1.30;;
78589;SDS011;67888;50.228;7.828;2023-03-22T23:41:51;5.67;;;1.20;;
78589;SDS011;67888;50.228;7.828;2023-03-22T23:46:51;4.17;;;1.30;;
78589;SDS011;67888;50.228;7.828;2023-03-22T23:51:52;3.47;;;1.10;;
78589;SDS011;67888;50.228;7.828;2023-03-22T23:56:52;3.83;;;1.10;;
